createdAt,value
2018-12-11T00:00:05.739Z,83.86
2018-12-11T00:01:05.741Z,83.97
2018-12-11T00:02:05.717Z,84.28
2018-12-11T00:03:05.706Z,83.83
2018-12-11T00:04:05.720Z,84.03
2018-12-11T00:05:05.683Z,83.86
2018-12-11T00:06:05.675Z,83.86
2018-12-11T00:07:05.663Z,83.86
2018-12-11T00:08:05.653Z,83.55
2018-12-11T00:09:05.670Z,83.86
2018-12-11T00:10:05.634Z,83.86
2018-12-11T00:11:05.619Z,83.55
2018-12-11T00:12:05.609Z,83.65
2018-12-11T00:13:05.604Z,83.86
2018-12-11T00:14:05.627Z,83.72
2018-12-11T00:15:05.575Z,83.51
2018-12-11T00:16:05.580Z,83.00
2018-12-11T00:17:05.558Z,83.24
2018-12-11T00:18:05.543Z,82.68
2018-12-11T00:19:05.532Z,82.93
2018-12-11T00:20:05.547Z,83.14
2018-12-11T00:21:05.522Z,83.65
2018-12-11T00:22:05.503Z,82.79
2018-12-11T00:23:05.490Z,83.10
2018-12-11T00:24:05.480Z,83.14
2018-12-11T00:25:05.493Z,83.10
2018-12-11T00:26:05.460Z,83.10
2018-12-11T00:27:05.448Z,83.24
2018-12-11T00:28:05.437Z,83.10
2018-12-11T00:29:05.429Z,83.31
2018-12-11T00:30:05.440Z,83.20
2018-12-11T00:31:05.407Z,82.58
2018-12-11T00:32:05.393Z,83.10
2018-12-11T00:33:05.381Z,83.20
2018-12-11T00:34:05.394Z,83.31
2018-12-11T00:35:05.386Z,83.31
2018-12-11T00:36:05.354Z,82.62
2018-12-11T00:37:05.341Z,83.10
2018-12-11T00:38:05.332Z,82.79
2018-12-11T00:39:05.327Z,82.89
2018-12-11T00:40:05.364Z,83.10
2018-12-11T00:41:05.317Z,83.10
2018-12-11T00:42:05.289Z,83.20
2018-12-11T00:43:05.276Z,83.00
2018-12-11T00:44:05.265Z,83.20
2018-12-11T00:45:05.287Z,83.31
2018-12-11T00:46:05.244Z,83.31
2018-12-11T00:47:05.235Z,83.41
2018-12-11T00:48:05.224Z,83.31
2018-12-11T00:49:05.224Z,83.10
2018-12-11T00:50:05.229Z,83.00
2018-12-11T00:51:05.193Z,82.79
2018-12-11T00:52:05.182Z,82.89
2018-12-11T00:53:05.170Z,82.89
2018-12-11T00:54:05.186Z,82.79
2018-12-11T00:55:05.149Z,82.79
2018-12-11T00:56:05.139Z,82.89
2018-12-11T00:57:05.129Z,82.89
2018-12-11T00:58:05.122Z,83.41
2018-12-11T00:59:05.131Z,83.41
2018-12-11T01:00:05.101Z,83.00
2018-12-11T01:01:05.087Z,83.20
2018-12-11T01:02:05.075Z,83.31
2018-12-11T01:03:05.064Z,83.62
2018-12-11T01:04:05.084Z,83.31
2018-12-11T01:05:05.043Z,83.51
2018-12-11T01:06:05.036Z,83.20
2018-12-11T01:07:05.022Z,83.51
2018-12-11T01:08:05.011Z,83.41
2018-12-11T01:09:05.027Z,83.62
2018-12-11T01:10:04.990Z,83.72
2018-12-11T01:11:04.981Z,83.62
2018-12-11T01:12:04.969Z,83.83
2018-12-11T01:13:04.985Z,83.83
2018-12-11T01:14:04.972Z,83.86
2018-12-11T01:15:04.936Z,84.13
2018-12-11T01:16:04.928Z,84.13
2018-12-11T01:17:04.916Z,83.76
2018-12-11T01:18:04.904Z,83.93
2018-12-11T01:19:04.918Z,84.03
2018-12-11T01:20:04.883Z,83.93
2018-12-11T01:21:04.874Z,84.17
2018-12-11T01:22:04.863Z,84.03
2018-12-11T01:23:04.852Z,84.55
2018-12-11T01:24:04.867Z,84.44
2018-12-11T01:25:04.829Z,84.86
2018-12-11T01:26:04.820Z,84.96
2018-12-11T01:27:04.811Z,84.96
2018-12-11T01:28:04.802Z,85.06
2018-12-11T01:29:04.837Z,85.11
2018-12-11T01:30:04.779Z,84.65
2018-12-11T01:31:04.768Z,85.11
2018-12-11T01:32:04.756Z,85.17
2018-12-11T01:33:04.749Z,84.90
2018-12-11T01:34:04.757Z,85.06
2018-12-11T01:35:04.724Z,84.96
2018-12-11T01:36:04.712Z,84.34
2018-12-11T01:37:04.702Z,84.96
2018-12-11T01:38:04.694Z,84.80
2018-12-11T01:39:04.708Z,85.00
2018-12-11T01:40:04.674Z,85.00
2018-12-11T01:41:04.663Z,84.90
2018-12-11T01:42:04.651Z,84.96
2018-12-11T01:43:04.641Z,84.59
2018-12-11T01:44:04.659Z,84.90
2018-12-11T01:45:04.618Z,84.90
2018-12-11T01:46:04.614Z,84.90
2018-12-11T01:47:04.598Z,84.86
2018-12-11T01:48:04.588Z,84.90
2018-12-11T01:49:04.601Z,84.80
2018-12-11T01:50:04.566Z,84.75
2018-12-11T01:51:04.554Z,84.86
2018-12-11T01:52:04.546Z,84.75
2018-12-11T01:53:04.531Z,84.86
2018-12-11T01:54:04.552Z,84.86
2018-12-11T01:55:04.509Z,84.80
2018-12-11T01:56:04.500Z,84.96
2018-12-11T01:57:04.491Z,84.86
2018-12-11T01:58:04.483Z,85.11
2018-12-11T01:59:04.492Z,84.96
2018-12-11T02:00:04.460Z,85.06
2018-12-11T02:01:04.447Z,84.86
2018-12-11T02:02:04.435Z,84.75
2018-12-11T02:03:04.426Z,84.75
2018-12-11T02:04:04.438Z,84.96
2018-12-11T02:05:04.406Z,84.86
2018-12-11T02:06:04.392Z,84.86
2018-12-11T02:07:04.381Z,84.80
2018-12-11T02:08:04.373Z,84.65
2018-12-11T02:09:04.394Z,84.75
2018-12-11T02:10:04.355Z,84.75
2018-12-11T02:11:04.341Z,84.75
2018-12-11T02:12:04.330Z,84.86
2018-12-11T02:13:04.319Z,84.96
2018-12-11T02:14:04.332Z,84.75
2018-12-11T02:15:04.300Z,84.96
2018-12-11T02:16:04.287Z,84.86
2018-12-11T02:17:04.275Z,84.86
2018-12-11T02:18:04.267Z,84.96
2018-12-11T02:19:04.281Z,84.86
2018-12-11T02:20:04.245Z,84.75
2018-12-11T02:21:04.235Z,84.55
2018-12-11T02:22:04.224Z,84.65
2018-12-11T02:23:04.212Z,84.65
2018-12-11T02:24:04.227Z,84.86
2018-12-11T02:25:04.223Z,84.96
2018-12-11T02:26:04.180Z,84.96
2018-12-11T02:27:04.169Z,84.75
2018-12-11T02:28:04.161Z,84.96
2018-12-11T02:29:04.174Z,84.96
2018-12-11T02:30:04.139Z,85.17
2018-12-11T02:31:04.127Z,84.44
2018-12-11T02:32:04.117Z,84.03
2018-12-11T02:33:04.107Z,83.72
2018-12-11T02:34:04.118Z,84.13
2018-12-11T02:35:04.082Z,83.93
2018-12-11T02:36:04.074Z,84.03
2018-12-11T02:37:04.075Z,83.93
2018-12-11T02:38:04.052Z,83.83
2018-12-11T02:39:04.064Z,83.58
2018-12-11T02:40:04.031Z,83.89
2018-12-11T02:41:04.020Z,83.83
2018-12-11T02:42:04.008Z,83.72
2018-12-11T02:43:03.997Z,83.78
2018-12-11T02:44:04.014Z,83.83
2018-12-11T02:45:03.977Z,83.93
2018-12-11T02:46:03.964Z,83.83
2018-12-11T02:47:03.953Z,83.93
2018-12-11T02:48:03.948Z,83.83
2018-12-11T02:49:03.974Z,83.78
2018-12-11T02:50:03.923Z,83.78
2018-12-11T02:51:03.913Z,83.62
2018-12-11T02:52:03.906Z,83.26
2018-12-11T02:53:03.890Z,83.26
2018-12-11T02:54:03.909Z,83.68
2018-12-11T02:55:03.868Z,83.26
2018-12-11T02:56:03.859Z,83.26
2018-12-11T02:57:03.849Z,83.41
2018-12-11T02:58:03.834Z,83.26
2018-12-11T02:59:03.850Z,83.26
2018-12-11T03:00:03.815Z,83.10
2018-12-11T03:01:03.816Z,83.37
2018-12-11T03:02:03.798Z,82.95
2018-12-11T03:03:03.789Z,83.47
2018-12-11T03:04:03.797Z,82.89
2018-12-11T03:05:03.761Z,82.79
2018-12-11T03:06:03.752Z,82.86
2018-12-11T03:07:03.742Z,82.75
2018-12-11T03:08:03.729Z,82.75
2018-12-11T03:09:03.744Z,82.86
2018-12-11T03:10:03.712Z,82.95
2018-12-11T03:11:03.699Z,82.75
2018-12-11T03:12:03.691Z,82.86
2018-12-11T03:13:03.676Z,82.75
2018-12-11T03:14:03.692Z,82.86
2018-12-11T03:15:03.657Z,82.75
2018-12-11T03:16:03.645Z,82.86
2018-12-11T03:17:03.633Z,82.86
2018-12-11T03:18:03.624Z,82.86
2018-12-11T03:19:03.639Z,82.86
2018-12-11T03:20:03.602Z,83.06
2018-12-11T03:21:03.591Z,83.00
2018-12-11T03:22:03.579Z,83.06
2018-12-11T03:23:03.570Z,83.16
2018-12-11T03:24:03.585Z,82.95
2018-12-11T03:25:03.548Z,83.16
2018-12-11T03:26:03.541Z,83.16
2018-12-11T03:27:03.529Z,82.86
2018-12-11T03:28:03.516Z,82.86
2018-12-11T03:29:03.534Z,82.95
2018-12-11T03:30:03.497Z,82.75
2018-12-11T03:31:03.485Z,82.75
2018-12-11T03:32:03.494Z,82.44
2018-12-11T03:33:03.471Z,82.44
2018-12-11T03:34:03.480Z,82.65
2018-12-11T03:35:03.443Z,82.13
2018-12-11T03:36:03.438Z,82.34
2018-12-11T03:37:03.421Z,82.54
2018-12-11T03:38:03.411Z,82.09
2018-12-11T03:39:03.426Z,82.44
2018-12-11T03:40:03.395Z,82.65
2018-12-11T03:41:03.379Z,82.54
2018-12-11T03:42:03.372Z,82.23
2018-12-11T03:43:03.356Z,82.13
2018-12-11T03:44:03.367Z,82.34
2018-12-11T03:45:03.337Z,82.34
2018-12-11T03:46:03.324Z,81.92
2018-12-11T03:47:03.312Z,81.51
2018-12-11T03:48:03.301Z,82.65
2018-12-11T03:49:03.317Z,81.82
2018-12-11T03:50:03.279Z,82.03
2018-12-11T03:51:03.269Z,82.03
2018-12-11T03:52:03.261Z,81.61
2018-12-11T03:53:03.248Z,82.34
2018-12-11T03:54:03.263Z,81.82
2018-12-11T03:55:03.229Z,81.51
2018-12-11T03:56:03.222Z,81.71
2018-12-11T03:57:03.203Z,81.71
2018-12-11T03:58:03.192Z,81.40
2018-12-11T03:59:03.206Z,81.61
2018-12-11T04:00:03.172Z,80.99
2018-12-11T04:01:03.161Z,81.61
2018-12-11T04:02:03.148Z,81.40
2018-12-11T04:03:03.137Z,81.51
2018-12-11T04:04:03.153Z,81.61
2018-12-11T04:05:03.118Z,81.51
2018-12-11T04:06:03.106Z,81.82
2018-12-11T04:07:03.095Z,82.23
2018-12-11T04:08:03.086Z,81.92
2018-12-11T04:09:03.096Z,81.51
2018-12-11T04:10:03.068Z,81.71
2018-12-11T04:11:03.053Z,81.82
2018-12-11T04:12:03.040Z,81.40
2018-12-11T04:13:03.034Z,81.88
2018-12-11T04:14:03.103Z,81.51
2018-12-11T04:15:03.010Z,81.71
2018-12-11T04:16:02.996Z,81.71
2018-12-11T04:17:02.987Z,82.34
2018-12-11T04:18:02.976Z,82.13
2018-12-11T04:19:02.988Z,82.23
2018-12-11T04:20:02.951Z,82.81
2018-12-11T04:21:02.940Z,82.34
2018-12-11T04:22:02.929Z,82.54
2018-12-11T04:23:02.919Z,82.75
2018-12-11T04:24:02.932Z,83.06
2018-12-11T04:25:02.899Z,82.95
2018-12-11T04:26:02.889Z,82.75
2018-12-11T04:27:02.878Z,82.95
2018-12-11T04:28:02.891Z,83.16
2018-12-11T04:29:02.853Z,83.16
2018-12-11T04:30:02.843Z,82.86
2018-12-11T04:31:02.835Z,82.75
2018-12-11T04:32:02.824Z,82.86
2018-12-11T04:33:02.846Z,82.75
2018-12-11T04:34:02.800Z,82.75
2018-12-11T04:35:02.800Z,83.16
2018-12-11T04:36:02.786Z,83.06
2018-12-11T04:37:02.766Z,82.75
2018-12-11T04:38:02.755Z,82.75
2018-12-11T04:39:02.771Z,82.86
2018-12-11T04:40:02.740Z,83.26
2018-12-11T04:41:02.723Z,82.75
2018-12-11T04:42:02.719Z,82.86
2018-12-11T04:43:02.704Z,83.06
2018-12-11T04:44:02.728Z,82.75
2018-12-11T04:45:02.681Z,83.16
2018-12-11T04:46:02.672Z,82.54
2018-12-11T04:47:02.661Z,82.75
2018-12-11T04:48:02.647Z,82.65
2018-12-11T04:49:02.640Z,82.75
2018-12-11T04:50:02.663Z,82.86
2018-12-11T04:51:02.618Z,82.86
2018-12-11T04:52:02.606Z,83.37
2018-12-11T04:53:02.594Z,82.95
2018-12-11T04:54:02.583Z,82.75
2018-12-11T04:55:02.578Z,82.79
2018-12-11T04:56:02.588Z,82.65
2018-12-11T04:57:02.554Z,83.20
2018-12-11T04:58:02.544Z,82.86
2018-12-11T04:59:02.533Z,82.48
2018-12-11T05:00:02.517Z,83.06
2018-12-11T05:01:02.537Z,83.16
2018-12-11T05:02:02.503Z,82.86
2018-12-11T05:03:02.490Z,82.95
2018-12-11T05:04:02.476Z,82.65
2018-12-11T05:05:02.466Z,82.95
2018-12-11T05:06:02.482Z,82.86
2018-12-11T05:07:02.443Z,82.58
2018-12-11T05:08:02.434Z,82.58
2018-12-11T05:09:02.424Z,82.86
2018-12-11T05:10:02.412Z,83.10
2018-12-11T05:11:02.427Z,83.10
2018-12-11T05:12:02.391Z,82.86
2018-12-11T05:13:02.378Z,82.75
2018-12-11T05:14:02.371Z,82.95
2018-12-11T05:15:02.360Z,82.79
2018-12-11T05:16:02.374Z,83.20
2018-12-11T05:17:02.336Z,83.20
2018-12-11T05:18:02.326Z,82.89
2018-12-11T05:19:02.315Z,83.00
2018-12-11T05:20:02.307Z,83.31
2018-12-11T05:21:02.324Z,83.51
2018-12-11T05:22:02.283Z,82.89
2018-12-11T05:23:02.274Z,82.79
2018-12-11T05:24:02.264Z,82.68
2018-12-11T05:25:02.251Z,83.00
2018-12-11T05:26:02.267Z,82.79
2018-12-11T05:27:02.231Z,83.20
2018-12-11T05:28:02.219Z,81.96
2018-12-11T05:29:02.220Z,83.00
2018-12-11T05:30:02.199Z,82.58
2018-12-11T05:31:02.213Z,81.96
2018-12-11T05:32:02.176Z,82.27
2018-12-11T05:33:02.220Z,82.27
2018-12-11T05:34:02.167Z,83.41
2018-12-11T05:35:02.144Z,83.20
2018-12-11T05:36:02.159Z,82.68
2018-12-11T05:37:02.123Z,83.10
2018-12-11T05:38:02.112Z,83.10
2018-12-11T05:39:02.101Z,82.89
2018-12-11T05:40:02.094Z,82.79
2018-12-11T05:41:02.106Z,82.68
2018-12-11T05:42:02.072Z,83.00
2018-12-11T05:43:02.064Z,82.58
2018-12-11T05:44:02.048Z,82.68
2018-12-11T05:45:02.039Z,82.89
2018-12-11T05:46:02.080Z,82.68
2018-12-11T05:47:02.015Z,81.96
2018-12-11T05:48:02.007Z,82.58
2018-12-11T05:49:01.994Z,82.89
2018-12-11T05:50:01.986Z,83.00
2018-12-11T05:51:01.999Z,82.89
2018-12-11T05:52:01.962Z,82.79
2018-12-11T05:53:01.954Z,83.41
2018-12-11T05:54:01.941Z,83.20
2018-12-11T05:55:01.933Z,83.00
2018-12-11T05:56:01.952Z,83.00
2018-12-11T05:57:01.910Z,83.20
2018-12-11T05:58:01.900Z,83.03
2018-12-11T05:59:01.894Z,82.79
2018-12-11T06:00:01.876Z,83.00
2018-12-11T06:01:01.892Z,83.00
2018-12-11T06:02:01.856Z,82.89
2018-12-11T06:03:01.844Z,82.89
2018-12-11T06:04:01.842Z,83.10
2018-12-11T06:05:01.825Z,83.20
2018-12-11T06:06:01.838Z,82.72
2018-12-11T06:07:01.801Z,83.20
2018-12-11T06:08:01.795Z,83.00
2018-12-11T06:09:01.784Z,82.72
2018-12-11T06:10:01.771Z,83.03
2018-12-11T06:11:01.785Z,82.89
2018-12-11T06:12:01.751Z,82.82
2018-12-11T06:13:01.738Z,82.82
2018-12-11T06:14:01.730Z,83.20
2018-12-11T06:15:01.722Z,83.31
2018-12-11T06:16:01.748Z,82.93
2018-12-11T06:17:01.696Z,83.20
2018-12-11T06:18:01.688Z,82.82
2018-12-11T06:19:01.673Z,83.03
2018-12-11T06:20:01.664Z,83.31
2018-12-11T06:21:01.681Z,84.03
2018-12-11T06:22:01.646Z,83.41
2018-12-11T06:23:01.631Z,84.23
2018-12-11T06:24:01.621Z,84.96
2018-12-11T06:25:01.754Z,84.75
2018-12-11T06:26:01.624Z,84.90
2018-12-11T06:27:01.590Z,85.31
2018-12-11T06:28:01.585Z,85.52
2018-12-11T06:29:01.570Z,85.11
2018-12-11T06:30:01.556Z,85.94
2018-12-11T06:31:01.572Z,85.94
2018-12-11T06:32:01.535Z,85.31
2018-12-11T06:33:01.540Z,85.73
2018-12-11T06:34:01.512Z,86.25
2018-12-11T06:35:01.507Z,85.77
2018-12-11T06:36:01.516Z,86.18
2018-12-11T06:37:01.481Z,86.70
2018-12-11T06:38:01.471Z,86.91
2018-12-11T06:39:01.461Z,87.32
2018-12-11T06:40:01.453Z,87.26
2018-12-11T06:41:01.466Z,87.43
2018-12-11T06:42:01.429Z,87.12
2018-12-11T06:43:01.417Z,86.91
2018-12-11T06:44:01.408Z,87.74
2018-12-11T06:45:01.396Z,88.05
2018-12-11T06:46:01.422Z,88.26
2018-12-11T06:47:01.376Z,88.30
2018-12-11T06:48:01.364Z,87.63
2018-12-11T06:49:01.354Z,87.95
2018-12-11T06:50:01.350Z,88.15
2018-12-11T06:51:01.331Z,88.46
2018-12-11T06:52:01.363Z,88.46
2018-12-11T06:53:01.311Z,87.84
2018-12-11T06:54:01.299Z,88.15
2018-12-11T06:55:01.288Z,87.63
2018-12-11T06:56:01.282Z,87.84
2018-12-11T06:57:01.273Z,87.32
2018-12-11T06:58:01.296Z,87.32
2018-12-11T06:59:01.248Z,87.43
2018-12-11T07:00:01.236Z,87.63
2018-12-11T07:01:01.226Z,87.74
2018-12-11T07:02:01.215Z,87.74
2018-12-11T07:03:01.203Z,87.95
2018-12-11T07:04:01.232Z,87.95
2018-12-11T07:05:01.181Z,87.32
2018-12-11T07:06:01.175Z,87.07
2018-12-11T07:07:01.161Z,87.38
2018-12-11T07:08:01.149Z,87.28
2018-12-11T07:09:01.141Z,87.70
2018-12-11T07:10:01.163Z,87.80
2018-12-11T07:11:01.116Z,87.38
2018-12-11T07:12:01.105Z,87.07
2018-12-11T07:13:01.094Z,86.45
2018-12-11T07:14:01.094Z,86.76
2018-12-11T07:15:01.073Z,87.01
2018-12-11T07:16:01.100Z,86.87
2018-12-11T07:17:01.049Z,85.94
2018-12-11T07:18:01.045Z,86.35
2018-12-11T07:19:01.031Z,85.73
2018-12-11T07:20:01.021Z,85.00
2018-12-11T07:21:01.017Z,85.52
2018-12-11T07:22:01.987Z,85.21
2018-12-11T07:23:00.986Z,85.21
2018-12-11T07:24:00.995Z,85.35
2018-12-11T07:25:00.995Z,85.31
2018-12-11T07:26:00.952Z,85.00
2018-12-11T07:27:00.942Z,85.21
2018-12-11T07:28:00.972Z,85.21
2018-12-11T07:29:00.924Z,85.31
2018-12-11T07:30:00.916Z,85.00
2018-12-11T07:31:00.900Z,85.11
2018-12-11T07:32:00.889Z,85.42
2018-12-11T07:33:00.880Z,84.80
2018-12-11T07:34:00.906Z,84.80
2018-12-11T07:35:00.860Z,84.69
2018-12-11T07:36:00.849Z,84.59
2018-12-11T07:37:00.835Z,84.69
2018-12-11T07:38:00.825Z,84.17
2018-12-11T07:39:00.814Z,83.65
2018-12-11T07:40:00.840Z,83.86
2018-12-11T07:41:00.796Z,83.34
2018-12-11T07:42:00.788Z,84.17
2018-12-11T07:43:00.772Z,84.28
2018-12-11T07:44:00.758Z,85.00
2018-12-11T07:45:00.750Z,84.07
2018-12-11T07:46:00.774Z,85.11
2018-12-11T07:47:00.727Z,83.97
2018-12-11T07:48:00.716Z,84.90
2018-12-11T07:49:00.729Z,84.90
2018-12-11T07:50:00.695Z,85.00
2018-12-11T07:51:00.684Z,84.69
2018-12-11T07:52:00.713Z,85.11
2018-12-11T07:53:00.664Z,85.11
2018-12-11T07:54:00.651Z,84.90
2018-12-11T07:55:00.641Z,84.07
2018-12-11T07:56:00.649Z,83.86
2018-12-11T07:57:00.619Z,83.65
2018-12-11T07:58:00.645Z,84.28
2018-12-11T07:59:00.605Z,84.90
2018-12-11T08:00:00.588Z,85.11
2018-12-11T08:01:00.577Z,85.00
2018-12-11T08:02:00.568Z,84.75
2018-12-11T08:03:00.554Z,84.59
2018-12-11T08:04:00.582Z,84.59
2018-12-11T08:05:00.536Z,84.17
2018-12-11T08:06:00.522Z,84.38
2018-12-11T08:07:00.512Z,83.93
2018-12-11T08:08:00.503Z,84.23
2018-12-11T08:09:00.492Z,85.06
2018-12-11T08:10:00.519Z,83.83
2018-12-11T08:11:00.469Z,84.23
2018-12-11T08:12:00.462Z,85.17
2018-12-11T08:13:00.448Z,85.27
2018-12-11T08:14:00.439Z,83.93
2018-12-11T08:15:00.435Z,84.03
2018-12-11T08:16:00.452Z,84.13
2018-12-11T08:17:00.411Z,84.55
2018-12-11T08:18:00.396Z,83.93
2018-12-11T08:19:00.385Z,83.83
2018-12-11T08:20:00.374Z,83.72
2018-12-11T08:21:00.366Z,83.83
2018-12-11T08:22:00.389Z,83.93
2018-12-11T08:23:00.345Z,84.96
2018-12-11T08:24:00.334Z,84.96
2018-12-11T08:25:00.322Z,84.23
2018-12-11T08:26:00.313Z,85.17
2018-12-11T08:27:00.301Z,85.38
2018-12-11T08:28:00.386Z,85.44
2018-12-11T08:29:00.279Z,84.82
2018-12-11T08:30:00.271Z,84.61
2018-12-11T08:31:00.257Z,85.03
2018-12-11T08:32:00.254Z,84.58
2018-12-11T08:33:00.235Z,83.99
2018-12-11T08:34:00.263Z,83.58
2018-12-11T08:35:00.218Z,84.20
2018-12-11T08:36:00.205Z,84.92
2018-12-11T08:37:00.195Z,85.03
2018-12-11T08:38:00.184Z,84.61
2018-12-11T08:39:00.174Z,85.03
2018-12-11T08:40:00.196Z,85.13
2018-12-11T08:41:00.154Z,84.92
2018-12-11T08:42:00.141Z,84.82
2018-12-11T08:43:00.129Z,85.24
2018-12-11T08:44:00.120Z,84.92
2018-12-11T08:45:00.109Z,84.72
2018-12-11T08:46:00.132Z,84.72
2018-12-11T08:47:00.086Z,84.03
2018-12-11T08:48:00.075Z,83.68
2018-12-11T08:49:00.070Z,85.03
2018-12-11T08:50:00.055Z,84.65
2018-12-11T08:51:00.043Z,84.92
2018-12-11T08:52:00.075Z,84.09
2018-12-11T08:53:00.025Z,84.20
2018-12-11T08:54:00.014Z,84.03
2018-12-11T08:55:00.001Z,83.78
2018-12-11T08:55:59.991Z,84.03
2018-12-11T08:56:59.980Z,84.82
2018-12-11T08:58:00.005Z,84.96
2018-12-11T08:59:06.300Z,84.72
2018-12-11T09:00:00.946Z,84.92
2018-12-11T09:00:59.937Z,84.82
2018-12-11T09:01:59.945Z,84.72
2018-12-11T09:02:59.915Z,84.72
2018-12-11T09:03:59.941Z,84.72
2018-12-11T09:04:59.894Z,84.23
2018-12-11T09:05:59.884Z,83.78
2018-12-11T09:06:59.873Z,85.03
2018-12-11T09:07:59.864Z,84.65
2018-12-11T09:08:59.851Z,84.61
2018-12-11T09:09:59.879Z,84.72
2018-12-11T09:10:59.831Z,85.03
2018-12-11T09:11:59.820Z,84.72
2018-12-11T09:12:59.809Z,85.03
2018-12-11T09:13:59.797Z,84.92
2018-12-11T09:14:59.787Z,85.03
2018-12-11T09:15:59.815Z,83.89
2018-12-11T09:16:59.769Z,84.82
2018-12-11T09:17:59.755Z,84.92
2018-12-11T09:18:59.745Z,84.82
2018-12-11T09:19:59.803Z,84.30
2018-12-11T09:20:59.726Z,84.92
2018-12-11T09:21:59.739Z,84.92
2018-12-11T09:22:59.729Z,85.24
2018-12-11T09:23:59.690Z,85.24
2018-12-11T09:24:59.683Z,85.55
2018-12-11T09:25:59.669Z,85.75
2018-12-11T09:26:59.664Z,86.07
2018-12-11T09:27:59.676Z,86.68
2018-12-11T09:28:59.645Z,87.20
2018-12-11T09:29:59.625Z,87.20
2018-12-11T09:30:59.615Z,86.99
2018-12-11T09:31:59.620Z,86.37
2018-12-11T09:32:59.620Z,86.27
2018-12-11T09:33:59.587Z,85.34
2018-12-11T09:34:59.572Z,86.37
2018-12-11T09:35:59.569Z,85.65
2018-12-11T09:36:59.550Z,86.31
2018-12-11T09:37:59.579Z,86.79
2018-12-11T09:38:59.531Z,86.72
2018-12-11T09:39:59.521Z,86.52
2018-12-11T09:40:59.511Z,86.83
2018-12-11T09:41:59.497Z,87.14
2018-12-11T09:42:59.513Z,87.14
2018-12-11T09:43:59.479Z,86.41
2018-12-11T09:44:59.463Z,85.89
2018-12-11T09:45:59.452Z,84.86
2018-12-11T09:46:59.445Z,84.96
2018-12-11T09:47:59.455Z,84.65
2018-12-11T09:48:59.420Z,85.42
2018-12-11T09:49:59.416Z,86.25
2018-12-11T09:50:59.423Z,86.35
2018-12-11T09:51:59.413Z,86.45
2018-12-11T09:52:59.378Z,86.62
2018-12-11T09:53:59.367Z,86.15
2018-12-11T09:54:59.355Z,86.55
2018-12-11T09:55:59.345Z,86.87
2018-12-11T09:56:59.365Z,86.76
2018-12-11T09:57:59.330Z,87.28
2018-12-11T09:58:59.312Z,86.87
2018-12-11T09:59:59.303Z,87.38
2018-12-11T10:00:59.292Z,86.97
2018-12-11T10:01:59.306Z,87.28
2018-12-11T10:02:59.268Z,87.18
2018-12-11T10:03:59.261Z,87.70
2018-12-11T10:04:59.249Z,87.38
2018-12-11T10:05:59.237Z,88.01
2018-12-11T10:06:59.290Z,87.01
2018-12-11T10:07:59.217Z,87.22
2018-12-11T10:08:59.204Z,87.74
2018-12-11T10:09:59.195Z,87.49
2018-12-11T10:10:59.181Z,87.70
2018-12-11T10:11:59.195Z,88.01
2018-12-11T10:12:59.161Z,87.38
2018-12-11T10:13:59.150Z,87.12
2018-12-11T10:14:59.140Z,86.97
2018-12-11T10:15:59.133Z,86.35
2018-12-11T10:16:59.143Z,86.91
2018-12-11T10:17:59.109Z,86.49
2018-12-11T10:18:59.096Z,87.18
2018-12-11T10:19:59.091Z,86.70
2018-12-11T10:20:59.079Z,87.12
2018-12-11T10:21:59.089Z,87.22
2018-12-11T10:22:59.062Z,87.84
2018-12-11T10:23:59.044Z,87.84
2018-12-11T10:24:59.033Z,87.74
2018-12-11T10:25:59.022Z,87.63
2018-12-11T10:26:59.041Z,87.63
2018-12-11T10:27:59.001Z,87.43
2018-12-11T10:28:58.994Z,86.70
2018-12-11T10:29:58.981Z,87.12
2018-12-11T10:30:58.970Z,88.05
2018-12-11T10:31:58.995Z,87.74
2018-12-11T10:32:58.947Z,88.15
2018-12-11T10:33:58.937Z,87.43
2018-12-11T10:34:58.928Z,87.84
2018-12-11T10:35:58.916Z,87.63
2018-12-11T10:36:58.903Z,87.43
2018-12-11T10:37:58.933Z,87.95
2018-12-11T10:38:58.885Z,88.26
2018-12-11T10:39:58.876Z,88.46
2018-12-11T10:40:58.864Z,88.05
2018-12-11T10:41:59.441Z,88.26
2018-12-11T10:42:58.841Z,88.88
2018-12-11T10:43:58.868Z,88.26
2018-12-11T10:44:58.824Z,88.36
2018-12-11T10:45:58.808Z,88.98
2018-12-11T10:46:58.799Z,88.98
2018-12-11T10:47:58.787Z,88.98
2018-12-11T10:48:58.780Z,88.78
2018-12-11T10:49:58.802Z,88.82
2018-12-11T10:50:58.754Z,88.88
2018-12-11T10:51:58.745Z,89.23
2018-12-11T10:52:58.735Z,89.03
2018-12-11T10:53:58.724Z,88.88
2018-12-11T10:54:58.712Z,88.67
2018-12-11T10:55:58.738Z,88.46
2018-12-11T10:56:58.692Z,88.15
2018-12-11T10:57:58.681Z,89.19
2018-12-11T10:58:58.672Z,88.15
2018-12-11T10:59:58.658Z,88.57
2018-12-11T11:00:58.653Z,89.03
2018-12-11T11:01:58.678Z,88.88
2018-12-11T11:02:58.630Z,88.88
2018-12-11T11:03:58.621Z,89.03
2018-12-11T11:04:58.608Z,88.67
2018-12-11T11:05:58.595Z,88.46
2018-12-11T11:06:58.586Z,88.98
2018-12-11T11:07:58.611Z,89.23
2018-12-11T11:08:58.580Z,87.95
2018-12-11T11:09:58.553Z,88.15
2018-12-11T11:10:58.582Z,88.40
2018-12-11T11:11:58.541Z,88.30
2018-12-11T11:12:58.524Z,88.61
2018-12-11T11:13:58.552Z,89.13
2018-12-11T11:14:58.502Z,88.98
2018-12-11T11:15:58.491Z,88.36
2018-12-11T11:16:58.480Z,88.40
2018-12-11T11:17:58.468Z,89.19
2018-12-11T11:18:58.463Z,88.98
2018-12-11T11:19:58.483Z,88.88
2018-12-11T11:20:58.444Z,88.78
2018-12-11T11:21:58.426Z,88.67
2018-12-11T11:22:58.415Z,88.67
2018-12-11T11:23:58.405Z,88.67
2018-12-11T11:24:58.394Z,88.78
2018-12-11T11:25:58.425Z,88.98
2018-12-11T11:26:58.372Z,88.36
2018-12-11T11:27:58.361Z,88.57
2018-12-11T11:28:58.355Z,88.67
2018-12-11T11:29:58.343Z,89.09
2018-12-11T11:30:58.329Z,89.29
2018-12-11T11:31:58.395Z,89.19
2018-12-11T11:32:58.309Z,88.40
2018-12-11T11:33:58.705Z,89.09
2018-12-11T11:34:58.289Z,88.98
2018-12-11T11:35:58.277Z,89.09
2018-12-11T11:36:58.268Z,88.67
2018-12-11T11:37:58.293Z,89.09
2018-12-11T11:38:58.245Z,88.88
2018-12-11T11:39:58.236Z,89.09
2018-12-11T11:40:58.237Z,88.88
2018-12-11T11:41:58.215Z,88.78
2018-12-11T11:42:58.204Z,88.67
2018-12-11T11:43:58.228Z,88.88
2018-12-11T11:44:58.180Z,89.09
2018-12-11T11:45:58.170Z,88.78
2018-12-11T11:46:58.160Z,89.09
2018-12-11T11:47:58.156Z,88.15
2018-12-11T11:48:58.139Z,88.05
2018-12-11T11:49:58.166Z,88.05
2018-12-11T11:50:58.115Z,88.15
2018-12-11T11:51:58.107Z,87.88
2018-12-11T11:52:58.099Z,87.88
2018-12-11T11:53:58.084Z,88.05
2018-12-11T11:54:58.073Z,88.40
2018-12-11T11:55:58.101Z,88.67
2018-12-11T11:56:58.059Z,88.46
2018-12-11T11:57:58.086Z,88.09
2018-12-11T11:58:58.031Z,88.20
2018-12-11T11:59:58.059Z,88.20
2018-12-11T12:00:58.010Z,88.20
2018-12-11T12:01:58.132Z,88.20
2018-12-11T12:02:57.985Z,88.20
2018-12-11T12:03:57.980Z,88.82
2018-12-11T12:04:57.968Z,88.40
2018-12-11T12:05:58.022Z,88.36
2018-12-11T12:06:57.946Z,88.61
2018-12-11T12:07:57.971Z,88.36
2018-12-11T12:08:59.460Z,88.36
2018-12-11T12:09:57.913Z,88.26
2018-12-11T12:10:57.904Z,88.88
2018-12-11T12:11:57.891Z,89.19
2018-12-11T12:12:57.890Z,88.67
2018-12-11T12:13:59.139Z,88.88
2018-12-11T12:14:57.887Z,88.78
2018-12-11T12:15:57.853Z,88.57
2018-12-11T12:16:57.842Z,88.05
2018-12-11T12:17:57.830Z,88.46
2018-12-11T12:18:57.821Z,88.05
2018-12-11T12:19:57.856Z,88.57
2018-12-11T12:20:57.909Z,88.88
2018-12-11T12:21:57.785Z,88.88
2018-12-11T12:22:57.776Z,88.78
2018-12-11T12:23:57.766Z,88.78
2018-12-11T12:24:57.752Z,88.98
2018-12-11T12:25:57.780Z,88.78
2018-12-11T12:26:57.732Z,88.78
2018-12-11T12:27:57.722Z,88.94
2018-12-11T12:28:57.716Z,89.29
2018-12-11T12:29:57.701Z,89.50
2018-12-11T12:30:57.688Z,89.36
2018-12-11T12:31:57.716Z,89.77
2018-12-11T12:32:57.671Z,89.98
2018-12-11T12:33:57.688Z,90.08
2018-12-11T12:34:57.645Z,90.60
2018-12-11T12:35:57.640Z,90.39
2018-12-11T12:36:57.626Z,90.08
2018-12-11T12:37:57.659Z,89.67
2018-12-11T12:38:57.602Z,88.73
2018-12-11T12:39:57.647Z,88.84
2018-12-11T12:40:57.586Z,89.36
2018-12-11T12:41:57.574Z,89.61
2018-12-11T12:42:57.564Z,89.09
2018-12-11T12:43:57.587Z,88.78
2018-12-11T12:44:57.540Z,88.88
2018-12-11T12:45:57.531Z,89.09
2018-12-11T12:46:57.522Z,90.23
2018-12-11T12:47:57.510Z,90.02
2018-12-11T12:48:57.499Z,89.71
2018-12-11T12:49:57.530Z,90.33
2018-12-11T12:50:57.476Z,90.23
2018-12-11T12:51:57.466Z,88.88